sensor_id;sensor_type;location;lat;lon;timestamp;temperature;humidity
63931;DHT22;50111;48.114;-2.066;2022-10-13T00:01:10;14.10;99.90
63931;DHT22;50111;48.114;-2.066;2022-10-13T00:03:37;14.00;99.90
63931;DHT22;50111;48.114;-2.066;2022-10-13T00:06:04;14.00;99.90
63931;DHT22;50111;48.114;-2.066;2022-10-13T00:08:29;14.00;99.90
63931;DHT22;50111;48.114;-2.066;2022-10-13T00:10:55;14.00;99.90
63931;DHT22;50111;48.114;-2.066;2022-10-13T00:13:20;14.00;99.90
63931;DHT22;50111;48.114;-2.066;2022-10-13T00:15:46;14.00;99.90
63931;DHT22;50111;48.114;-2.066;2022-10-13T00:18:12;14.00;99.90
63931;DHT22;50111;48.114;-2.066;2022-10-13T00:20:45;13.90;99.90
63931;DHT22;50111;48.114;-2.066;2022-10-13T00:23:11;14.00;99.90
63931;DHT22;50111;48.114;-2.066;2022-10-13T00:25:41;13.90;99.90
63931;DHT22;50111;48.114;-2.066;2022-10-13T00:28:07;14.00;99.90
63931;DHT22;50111;48.114;-2.066;2022-10-13T00:30:34;13.90;99.90
63931;DHT22;50111;48.114;-2.066;2022-10-13T00:32:59;14.00;99.90
63931;DHT22;50111;48.114;-2.066;2022-10-13T00:35:25;13.90;99.90
63931;DHT22;50111;48.114;-2.066;2022-10-13T00:37:50;14.00;99.90
63931;DHT22;50111;48.114;-2.066;2022-10-13T00:40:17;13.90;99.90
63931;DHT22;50111;48.114;-2.066;2022-10-13T00:42:43;13.90;99.90
63931;DHT22;50111;48.114;-2.066;2022-10-13T00:47:40;14.00;99.90
63931;DHT22;50111;48.114;-2.066;2022-10-13T00:50:08;14.00;99.90
63931;DHT22;50111;48.114;-2.066;2022-10-13T00:52:34;13.90;99.90
63931;DHT22;50111;48.114;-2.066;2022-10-13T00:55:00;13.90;99.90
63931;DHT22;50111;48.114;-2.066;2022-10-13T00:57:27;13.90;99.90
63931;DHT22;50111;48.114;-2.066;2022-10-13T00:59:52;13.90;99.90
63931;DHT22;50111;48.114;-2.066;2022-10-13T01:02:18;14.00;99.90
63931;DHT22;50111;48.114;-2.066;2022-10-13T01:04:44;13.90;99.90
63931;DHT22;50111;48.114;-2.066;2022-10-13T01:07:12;13.90;99.90
63931;DHT22;50111;48.114;-2.066;2022-10-13T01:09:38;13.90;99.90
63931;DHT22;50111;48.114;-2.066;2022-10-13T01:34:56;13.80;99.90
63931;DHT22;50111;48.114;-2.066;2022-10-13T01:40:06;13.80;99.90
63931;DHT22;50111;48.114;-2.066;2022-10-13T01:42:41;13.80;99.90
63931;DHT22;50111;48.114;-2.066;2022-10-13T01:45:08;13.90;99.90
63931;DHT22;50111;48.114;-2.066;2022-10-13T01:47:35;13.90;99.90
63931;DHT22;50111;48.114;-2.066;2022-10-13T01:50:01;13.80;99.90
63931;DHT22;50111;48.114;-2.066;2022-10-13T01:52:30;13.90;99.90
63931;DHT22;50111;48.114;-2.066;2022-10-13T01:54:56;13.80;99.90
63931;DHT22;50111;48.114;-2.066;2022-10-13T01:57:32;13.90;99.90
63931;DHT22;50111;48.114;-2.066;2022-10-13T01:59:58;13.90;99.90
63931;DHT22;50111;48.114;-2.066;2022-10-13T02:05:11;13.90;99.90
63931;DHT22;50111;48.114;-2.066;2022-10-13T02:07:43;13.90;99.90
63931;DHT22;50111;48.114;-2.066;2022-10-13T02:10:26;14.00;99.90
63931;DHT22;50111;48.114;-2.066;2022-10-13T02:12:56;13.90;99.90
63931;DHT22;50111;48.114;-2.066;2022-10-13T02:15:24;13.80;99.90
63931;DHT22;50111;48.114;-2.066;2022-10-13T02:17:50;13.80;99.90
63931;DHT22;50111;48.114;-2.066;2022-10-13T02:20:16;13.90;99.90
63931;DHT22;50111;48.114;-2.066;2022-10-13T02:22:44;14.00;99.90
63931;DHT22;50111;48.114;-2.066;2022-10-13T02:25:10;13.90;99.90
63931;DHT22;50111;48.114;-2.066;2022-10-13T02:27:36;13.90;99.90
63931;DHT22;50111;48.114;-2.066;2022-10-13T02:30:02;13.90;99.90
63931;DHT22;50111;48.114;-2.066;2022-10-13T02:32:30;13.90;99.90
63931;DHT22;50111;48.114;-2.066;2022-10-13T02:34:56;14.00;99.90
63931;DHT22;50111;48.114;-2.066;2022-10-13T02:37:21;13.90;99.90
63931;DHT22;50111;48.114;-2.066;2022-10-13T02:39:49;13.90;99.90
63931;DHT22;50111;48.114;-2.066;2022-10-13T02:42:15;14.00;99.90
63931;DHT22;50111;48.114;-2.066;2022-10-13T02:44:40;13.90;99.90
63931;DHT22;50111;48.114;-2.066;2022-10-13T02:47:06;14.00;99.90
63931;DHT22;50111;48.114;-2.066;2022-10-13T02:49:31;14.00;99.90
63931;DHT22;50111;48.114;-2.066;2022-10-13T02:51:57;13.90;99.90
63931;DHT22;50111;48.114;-2.066;2022-10-13T02:54:22;13.90;99.90
63931;DHT22;50111;48.114;-2.066;2022-10-13T02:56:48;13.90;99.90
63931;DHT22;50111;48.114;-2.066;2022-10-13T02:59:13;13.90;99.90
63931;DHT22;50111;48.114;-2.066;2022-10-13T03:01:39;13.90;99.90
63931;DHT22;50111;48.114;-2.066;2022-10-13T03:04:06;13.90;99.90
63931;DHT22;50111;48.114;-2.066;2022-10-13T03:06:32;13.90;99.90
63931;DHT22;50111;48.114;-2.066;2022-10-13T03:08:57;13.90;99.90
63931;DHT22;50111;48.114;-2.066;2022-10-13T03:11:23;13.90;99.90
63931;DHT22;50111;48.114;-2.066;2022-10-13T03:13:49;13.90;99.90
63931;DHT22;50111;48.114;-2.066;2022-10-13T03:16:14;13.80;99.90
63931;DHT22;50111;48.114;-2.066;2022-10-13T03:18:40;13.90;99.90
63931;DHT22;50111;48.114;-2.066;2022-10-13T03:21:05;13.90;99.90
63931;DHT22;50111;48.114;-2.066;2022-10-13T03:23:31;13.90;99.90
63931;DHT22;50111;48.114;-2.066;2022-10-13T03:25:57;13.90;99.90
63931;DHT22;50111;48.114;-2.066;2022-10-13T03:28:22;13.90;99.90
63931;DHT22;50111;48.114;-2.066;2022-10-13T03:30:49;14.00;99.90
63931;DHT22;50111;48.114;-2.066;2022-10-13T03:33:14;14.00;99.90
63931;DHT22;50111;48.114;-2.066;2022-10-13T03:35:40;14.00;99.90
63931;DHT22;50111;48.114;-2.066;2022-10-13T03:38:06;14.00;99.90
63931;DHT22;50111;48.114;-2.066;2022-10-13T03:40:31;14.00;99.90
63931;DHT22;50111;48.114;-2.066;2022-10-13T03:42:57;13.90;99.90
63931;DHT22;50111;48.114;-2.066;2022-10-13T03:45:22;13.90;99.90
63931;DHT22;50111;48.114;-2.066;2022-10-13T03:47:48;13.90;99.90
63931;DHT22;50111;48.114;-2.066;2022-10-13T03:50:13;13.90;99.90
63931;DHT22;50111;48.114;-2.066;2022-10-13T03:52:39;13.80;99.90
63931;DHT22;50111;48.114;-2.066;2022-10-13T03:55:04;13.90;99.90
63931;DHT22;50111;48.114;-2.066;2022-10-13T03:57:30;13.90;99.90
63931;DHT22;50111;48.114;-2.066;2022-10-13T03:59:56;13.90;99.90
63931;DHT22;50111;48.114;-2.066;2022-10-13T04:02:22;13.80;99.90
63931;DHT22;50111;48.114;-2.066;2022-10-13T04:04:47;13.70;99.90
63931;DHT22;50111;48.114;-2.066;2022-10-13T04:07:13;13.80;99.90
63931;DHT22;50111;48.114;-2.066;2022-10-13T04:09:38;13.70;99.90
63931;DHT22;50111;48.114;-2.066;2022-10-13T04:12:04;13.80;99.90
63931;DHT22;50111;48.114;-2.066;2022-10-13T04:14:30;13.80;99.90
63931;DHT22;50111;48.114;-2.066;2022-10-13T04:16:55;13.80;99.90
63931;DHT22;50111;48.114;-2.066;2022-10-13T04:19:21;13.80;99.90
63931;DHT22;50111;48.114;-2.066;2022-10-13T04:21:47;13.80;99.90
63931;DHT22;50111;48.114;-2.066;2022-10-13T04:24:12;13.80;99.90
63931;DHT22;50111;48.114;-2.066;2022-10-13T04:26:38;13.80;99.90
63931;DHT22;50111;48.114;-2.066;2022-10-13T04:29:04;13.80;99.90
63931;DHT22;50111;48.114;-2.066;2022-10-13T04:31:30;13.80;99.90
63931;DHT22;50111;48.114;-2.066;2022-10-13T04:33:56;13.80;99.90
63931;DHT22;50111;48.114;-2.066;2022-10-13T04:36:21;13.90;99.90
63931;DHT22;50111;48.114;-2.066;2022-10-13T04:38:47;13.90;99.90
63931;DHT22;50111;48.114;-2.066;2022-10-13T04:41:13;13.90;99.90
63931;DHT22;50111;48.114;-2.066;2022-10-13T04:43:39;13.90;99.90
63931;DHT22;50111;48.114;-2.066;2022-10-13T04:46:14;13.90;99.90
63931;DHT22;50111;48.114;-2.066;2022-10-13T04:48:40;13.90;99.90
63931;DHT22;50111;48.114;-2.066;2022-10-13T04:51:07;14.00;99.90
63931;DHT22;50111;48.114;-2.066;2022-10-13T04:53:33;14.00;99.90
63931;DHT22;50111;48.114;-2.066;2022-10-13T04:55:59;14.00;99.90
63931;DHT22;50111;48.114;-2.066;2022-10-13T04:58:25;14.00;99.90
63931;DHT22;50111;48.114;-2.066;2022-10-13T05:00:50;14.00;99.90
63931;DHT22;50111;48.114;-2.066;2022-10-13T05:03:16;14.10;99.90
63931;DHT22;50111;48.114;-2.066;2022-10-13T05:05:41;14.10;99.90
63931;DHT22;50111;48.114;-2.066;2022-10-13T05:08:07;14.10;99.90
63931;DHT22;50111;48.114;-2.066;2022-10-13T05:10:33;14.10;99.90
63931;DHT22;50111;48.114;-2.066;2022-10-13T05:12:58;14.10;99.90
63931;DHT22;50111;48.114;-2.066;2022-10-13T05:15:24;14.10;99.90
63931;DHT22;50111;48.114;-2.066;2022-10-13T05:17:49;14.10;99.90
63931;DHT22;50111;48.114;-2.066;2022-10-13T05:20:15;14.10;99.90
63931;DHT22;50111;48.114;-2.066;2022-10-13T05:22:42;14.10;99.90
63931;DHT22;50111;48.114;-2.066;2022-10-13T05:25:07;14.10;99.90
63931;DHT22;50111;48.114;-2.066;2022-10-13T05:27:33;14.20;99.90
63931;DHT22;50111;48.114;-2.066;2022-10-13T05:29:58;14.30;99.90
63931;DHT22;50111;48.114;-2.066;2022-10-13T05:32:24;14.30;99.90
63931;DHT22;50111;48.114;-2.066;2022-10-13T05:34:49;14.30;99.90
63931;DHT22;50111;48.114;-2.066;2022-10-13T05:37:15;14.30;99.90
63931;DHT22;50111;48.114;-2.066;2022-10-13T05:39:43;14.30;99.90
63931;DHT22;50111;48.114;-2.066;2022-10-13T05:42:09;14.40;99.90
63931;DHT22;50111;48.114;-2.066;2022-10-13T05:44:35;14.40;99.90
63931;DHT22;50111;48.114;-2.066;2022-10-13T05:47:02;14.40;99.90
63931;DHT22;50111;48.114;-2.066;2022-10-13T05:49:27;14.50;99.90
63931;DHT22;50111;48.114;-2.066;2022-10-13T05:51:54;14.50;99.90
63931;DHT22;50111;48.114;-2.066;2022-10-13T05:56:53;14.60;99.90
63931;DHT22;50111;48.114;-2.066;2022-10-13T05:59:20;14.60;99.90
63931;DHT22;50111;48.114;-2.066;2022-10-13T06:01:48;14.70;99.90
63931;DHT22;50111;48.114;-2.066;2022-10-13T06:04:15;14.70;99.90
63931;DHT22;50111;48.114;-2.066;2022-10-13T06:06:41;14.80;99.90
63931;DHT22;50111;48.114;-2.066;2022-10-13T06:09:07;14.70;99.90
63931;DHT22;50111;48.114;-2.066;2022-10-13T06:11:32;14.80;99.90
63931;DHT22;50111;48.114;-2.066;2022-10-13T06:13:58;14.70;99.90
63931;DHT22;50111;48.114;-2.066;2022-10-13T06:16:23;14.80;99.90
63931;DHT22;50111;48.114;-2.066;2022-10-13T06:18:49;14.80;99.90
63931;DHT22;50111;48.114;-2.066;2022-10-13T06:21:14;14.80;99.90
63931;DHT22;50111;48.114;-2.066;2022-10-13T06:23:41;14.80;99.90
63931;DHT22;50111;48.114;-2.066;2022-10-13T06:26:07;14.80;99.90
63931;DHT22;50111;48.114;-2.066;2022-10-13T06:28:33;14.80;99.90
63931;DHT22;50111;48.114;-2.066;2022-10-13T06:30:59;14.80;99.90
63931;DHT22;50111;48.114;-2.066;2022-10-13T06:33:24;14.80;99.90
63931;DHT22;50111;48.114;-2.066;2022-10-13T06:35:51;14.80;99.90
63931;DHT22;50111;48.114;-2.066;2022-10-13T06:38:17;14.90;99.90
63931;DHT22;50111;48.114;-2.066;2022-10-13T06:40:42;14.90;99.90
63931;DHT22;50111;48.114;-2.066;2022-10-13T06:43:08;14.90;99.90
63931;DHT22;50111;48.114;-2.066;2022-10-13T06:45:34;14.90;99.90
63931;DHT22;50111;48.114;-2.066;2022-10-13T06:47:59;14.90;99.90
63931;DHT22;50111;48.114;-2.066;2022-10-13T06:50:25;14.90;99.90
63931;DHT22;50111;48.114;-2.066;2022-10-13T06:52:50;14.90;99.90
63931;DHT22;50111;48.114;-2.066;2022-10-13T06:55:16;15.00;99.90
63931;DHT22;50111;48.114;-2.066;2022-10-13T06:57:41;15.00;99.90
63931;DHT22;50111;48.114;-2.066;2022-10-13T07:00:07;15.00;99.90
63931;DHT22;50111;48.114;-2.066;2022-10-13T07:02:33;15.00;99.90
63931;DHT22;50111;48.114;-2.066;2022-10-13T07:04:58;15.10;99.90
63931;DHT22;50111;48.114;-2.066;2022-10-13T07:07:24;15.10;99.90
63931;DHT22;50111;48.114;-2.066;2022-10-13T07:09:56;15.10;99.90
63931;DHT22;50111;48.114;-2.066;2022-10-13T07:12:21;15.10;99.90
63931;DHT22;50111;48.114;-2.066;2022-10-13T07:14:47;15.20;99.90
63931;DHT22;50111;48.114;-2.066;2022-10-13T07:17:13;15.20;99.90
63931;DHT22;50111;48.114;-2.066;2022-10-13T07:19:38;15.20;99.90
63931;DHT22;50111;48.114;-2.066;2022-10-13T07:22:04;15.20;99.90
63931;DHT22;50111;48.114;-2.066;2022-10-13T07:24:29;15.20;99.90
63931;DHT22;50111;48.114;-2.066;2022-10-13T07:26:55;15.20;99.90
63931;DHT22;50111;48.114;-2.066;2022-10-13T07:29:20;15.20;99.90
63931;DHT22;50111;48.114;-2.066;2022-10-13T07:31:46;15.20;99.90
63931;DHT22;50111;48.114;-2.066;2022-10-13T07:34:11;15.30;99.90
63931;DHT22;50111;48.114;-2.066;2022-10-13T07:36:38;15.30;99.90
63931;DHT22;50111;48.114;-2.066;2022-10-13T07:39:06;15.30;99.90
63931;DHT22;50111;48.114;-2.066;2022-10-13T07:41:32;15.30;99.90
63931;DHT22;50111;48.114;-2.066;2022-10-13T07:43:57;15.40;99.90
63931;DHT22;50111;48.114;-2.066;2022-10-13T07:46:23;15.40;99.90
63931;DHT22;50111;48.114;-2.066;2022-10-13T07:48:50;15.40;99.90
63931;DHT22;50111;48.114;-2.066;2022-10-13T07:51:16;15.40;99.90
63931;DHT22;50111;48.114;-2.066;2022-10-13T07:53:41;15.50;99.90
63931;DHT22;50111;48.114;-2.066;2022-10-13T07:56:09;15.50;99.90
63931;DHT22;50111;48.114;-2.066;2022-10-13T07:58:35;15.50;99.90
63931;DHT22;50111;48.114;-2.066;2022-10-13T08:01:01;15.60;99.90
63931;DHT22;50111;48.114;-2.066;2022-10-13T08:03:27;15.60;99.90
63931;DHT22;50111;48.114;-2.066;2022-10-13T08:05:53;15.60;99.90
63931;DHT22;50111;48.114;-2.066;2022-10-13T08:08:19;15.60;99.90
63931;DHT22;50111;48.114;-2.066;2022-10-13T08:10:45;15.50;99.90
63931;DHT22;50111;48.114;-2.066;2022-10-13T08:13:11;15.50;99.90
63931;DHT22;50111;48.114;-2.066;2022-10-13T08:15:39;15.50;99.90
63931;DHT22;50111;48.114;-2.066;2022-10-13T08:18:05;15.50;99.90
63931;DHT22;50111;48.114;-2.066;2022-10-13T08:20:31;15.50;99.90
63931;DHT22;50111;48.114;-2.066;2022-10-13T08:22:56;15.50;99.90
63931;DHT22;50111;48.114;-2.066;2022-10-13T08:25:22;15.50;99.90
63931;DHT22;50111;48.114;-2.066;2022-10-13T08:27:47;15.50;99.90
63931;DHT22;50111;48.114;-2.066;2022-10-13T08:30:13;15.50;99.90
63931;DHT22;50111;48.114;-2.066;2022-10-13T08:32:39;15.50;99.90
63931;DHT22;50111;48.114;-2.066;2022-10-13T08:35:05;15.50;99.90
63931;DHT22;50111;48.114;-2.066;2022-10-13T08:37:31;15.50;99.90
63931;DHT22;50111;48.114;-2.066;2022-10-13T08:39:56;15.50;99.90
63931;DHT22;50111;48.114;-2.066;2022-10-13T08:42:22;15.50;99.90
63931;DHT22;50111;48.114;-2.066;2022-10-13T08:45:22;15.50;99.90
63931;DHT22;50111;48.114;-2.066;2022-10-13T08:47:44;15.50;99.90
63931;DHT22;50111;48.114;-2.066;2022-10-13T08:50:12;15.50;99.90
63931;DHT22;50111;48.114;-2.066;2022-10-13T08:55:21;15.60;99.90
63931;DHT22;50111;48.114;-2.066;2022-10-13T08:57:48;15.60;99.90
63931;DHT22;50111;48.114;-2.066;2022-10-13T09:00:13;15.70;99.90
63931;DHT22;50111;48.114;-2.066;2022-10-13T09:02:40;15.70;99.90
63931;DHT22;50111;48.114;-2.066;2022-10-13T09:05:09;15.80;99.90
63931;DHT22;50111;48.114;-2.066;2022-10-13T09:07:37;15.90;99.90
63931;DHT22;50111;48.114;-2.066;2022-10-13T09:10:03;15.90;99.90
63931;DHT22;50111;48.114;-2.066;2022-10-13T09:12:29;15.90;99.90
63931;DHT22;50111;48.114;-2.066;2022-10-13T09:14:59;15.90;99.90
63931;DHT22;50111;48.114;-2.066;2022-10-13T09:17:25;16.00;99.90
63931;DHT22;50111;48.114;-2.066;2022-10-13T09:22:30;16.00;99.90
63931;DHT22;50111;48.114;-2.066;2022-10-13T09:25:02;16.00;99.90
63931;DHT22;50111;48.114;-2.066;2022-10-13T09:30:37;16.00;99.90
63931;DHT22;50111;48.114;-2.066;2022-10-13T09:38:05;16.00;99.90
63931;DHT22;50111;48.114;-2.066;2022-10-13T09:40:31;16.10;99.90
63931;DHT22;50111;48.114;-2.066;2022-10-13T09:42:57;16.10;99.90
63931;DHT22;50111;48.114;-2.066;2022-10-13T09:45:24;16.10;99.90
63931;DHT22;50111;48.114;-2.066;2022-10-13T09:47:51;16.10;99.90
63931;DHT22;50111;48.114;-2.066;2022-10-13T09:50:18;16.10;99.90
63931;DHT22;50111;48.114;-2.066;2022-10-13T09:52:45;16.10;99.90
63931;DHT22;50111;48.114;-2.066;2022-10-13T09:55:30;16.20;99.90
63931;DHT22;50111;48.114;-2.066;2022-10-13T09:57:59;16.20;99.90
63931;DHT22;50111;48.114;-2.066;2022-10-13T10:00:26;16.20;99.90
63931;DHT22;50111;48.114;-2.066;2022-10-13T10:02:56;16.20;99.90
63931;DHT22;50111;48.114;-2.066;2022-10-13T10:08:03;16.30;99.90
63931;DHT22;50111;48.114;-2.066;2022-10-13T10:10:32;16.30;99.90
63931;DHT22;50111;48.114;-2.066;2022-10-13T10:12:59;16.30;99.90
63931;DHT22;50111;48.114;-2.066;2022-10-13T10:15:26;16.40;99.90
63931;DHT22;50111;48.114;-2.066;2022-10-13T10:17:55;16.40;99.90
63931;DHT22;50111;48.114;-2.066;2022-10-13T10:20:29;16.40;99.90
63931;DHT22;50111;48.114;-2.066;2022-10-13T10:25:33;16.40;99.90
63931;DHT22;50111;48.114;-2.066;2022-10-13T10:30:25;16.40;99.90
63931;DHT22;50111;48.114;-2.066;2022-10-13T10:33:12;16.40;99.90
63931;DHT22;50111;48.114;-2.066;2022-10-13T10:35:43;16.50;99.90
63931;DHT22;50111;48.114;-2.066;2022-10-13T10:45:56;16.60;99.90
63931;DHT22;50111;48.114;-2.066;2022-10-13T10:48:24;16.60;99.90
63931;DHT22;50111;48.114;-2.066;2022-10-13T10:50:51;16.50;99.90
63931;DHT22;50111;48.114;-2.066;2022-10-13T10:55:45;16.50;99.90
63931;DHT22;50111;48.114;-2.066;2022-10-13T11:00:51;16.50;99.90
63931;DHT22;50111;48.114;-2.066;2022-10-13T11:05:59;16.50;99.90
63931;DHT22;50111;48.114;-2.066;2022-10-13T11:08:29;16.50;99.90
63931;DHT22;50111;48.114;-2.066;2022-10-13T11:13:50;16.40;99.90
63931;DHT22;50111;48.114;-2.066;2022-10-13T11:16:27;16.40;99.90
63931;DHT22;50111;48.114;-2.066;2022-10-13T11:18:54;16.30;99.90
63931;DHT22;50111;48.114;-2.066;2022-10-13T11:21:20;16.30;99.90
63931;DHT22;50111;48.114;-2.066;2022-10-13T11:23:46;16.30;99.90
63931;DHT22;50111;48.114;-2.066;2022-10-13T11:26:24;16.40;99.90
63931;DHT22;50111;48.114;-2.066;2022-10-13T11:28:51;16.40;99.90
63931;DHT22;50111;48.114;-2.066;2022-10-13T11:31:24;16.50;99.90
63931;DHT22;50111;48.114;-2.066;2022-10-13T11:36:36;16.80;99.90
63931;DHT22;50111;48.114;-2.066;2022-10-13T11:41:31;17.10;99.90
63931;DHT22;50111;48.114;-2.066;2022-10-13T11:44:11;17.00;99.90
63931;DHT22;50111;48.114;-2.066;2022-10-13T11:46:54;17.10;99.90
63931;DHT22;50111;48.114;-2.066;2022-10-13T11:49:31;17.20;99.90
63931;DHT22;50111;48.114;-2.066;2022-10-13T11:52:22;17.30;99.90
63931;DHT22;50111;48.114;-2.066;2022-10-13T11:54:50;17.40;99.90
63931;DHT22;50111;48.114;-2.066;2022-10-13T11:57:20;17.50;99.90
63931;DHT22;50111;48.114;-2.066;2022-10-13T11:59:46;17.50;99.90
63931;DHT22;50111;48.114;-2.066;2022-10-13T12:02:13;17.60;99.90
63931;DHT22;50111;48.114;-2.066;2022-10-13T12:04:41;17.50;99.90
63931;DHT22;50111;48.114;-2.066;2022-10-13T12:07:08;17.40;99.90
63931;DHT22;50111;48.114;-2.066;2022-10-13T12:09:35;17.30;99.90
63931;DHT22;50111;48.114;-2.066;2022-10-13T12:12:14;17.20;99.90
63931;DHT22;50111;48.114;-2.066;2022-10-13T12:14:43;17.20;99.90
63931;DHT22;50111;48.114;-2.066;2022-10-13T12:19:58;17.10;99.90
63931;DHT22;50111;48.114;-2.066;2022-10-13T12:22:23;17.20;99.90
63931;DHT22;50111;48.114;-2.066;2022-10-13T12:25:01;17.30;99.90
63931;DHT22;50111;48.114;-2.066;2022-10-13T12:27:27;17.30;99.90
63931;DHT22;50111;48.114;-2.066;2022-10-13T12:29:53;17.30;99.90
63931;DHT22;50111;48.114;-2.066;2022-10-13T12:32:20;17.30;99.90
63931;DHT22;50111;48.114;-2.066;2022-10-13T12:34:46;17.20;99.90
63931;DHT22;50111;48.114;-2.066;2022-10-13T12:39:50;17.10;99.90
63931;DHT22;50111;48.114;-2.066;2022-10-13T12:42:16;17.20;99.90
63931;DHT22;50111;48.114;-2.066;2022-10-13T12:44:41;17.20;99.90
63931;DHT22;50111;48.114;-2.066;2022-10-13T12:47:34;17.20;99.90
63931;DHT22;50111;48.114;-2.066;2022-10-13T12:49:53;17.30;99.90
63931;DHT22;50111;48.114;-2.066;2022-10-13T12:52:38;17.30;99.90
63931;DHT22;50111;48.114;-2.066;2022-10-13T12:55:11;17.30;99.90
63931;DHT22;50111;48.114;-2.066;2022-10-13T12:57:38;17.30;99.90
63931;DHT22;50111;48.114;-2.066;2022-10-13T13:05:32;17.40;99.90
63931;DHT22;50111;48.114;-2.066;2022-10-13T13:07:59;17.40;99.90
63931;DHT22;50111;48.114;-2.066;2022-10-13T13:10:24;17.50;99.90
63931;DHT22;50111;48.114;-2.066;2022-10-13T13:12:51;17.60;99.90
63931;DHT22;50111;48.114;-2.066;2022-10-13T13:15:36;17.70;99.90
63931;DHT22;50111;48.114;-2.066;2022-10-13T13:20:45;17.90;99.90
63931;DHT22;50111;48.114;-2.066;2022-10-13T13:23:11;17.80;99.90
63931;DHT22;50111;48.114;-2.066;2022-10-13T13:25:37;17.80;99.90
63931;DHT22;50111;48.114;-2.066;2022-10-13T13:28:05;17.90;99.90
63931;DHT22;50111;48.114;-2.066;2022-10-13T13:30:34;18.00;99.90
63931;DHT22;50111;48.114;-2.066;2022-10-13T13:33:00;18.10;99.90
63931;DHT22;50111;48.114;-2.066;2022-10-13T13:35:25;18.10;99.90
63931;DHT22;50111;48.114;-2.066;2022-10-13T13:37:51;18.20;99.90
63931;DHT22;50111;48.114;-2.066;2022-10-13T13:40:18;18.20;99.90
63931;DHT22;50111;48.114;-2.066;2022-10-13T13:42:44;18.20;99.90
63931;DHT22;50111;48.114;-2.066;2022-10-13T13:45:16;18.30;99.90
63931;DHT22;50111;48.114;-2.066;2022-10-13T13:47:42;18.40;99.90
63931;DHT22;50111;48.114;-2.066;2022-10-13T13:50:15;18.50;99.90
63931;DHT22;50111;48.114;-2.066;2022-10-13T13:52:42;18.50;99.90
63931;DHT22;50111;48.114;-2.066;2022-10-13T13:55:07;18.60;99.90
63931;DHT22;50111;48.114;-2.066;2022-10-13T13:57:33;18.60;99.90
63931;DHT22;50111;48.114;-2.066;2022-10-13T13:59:58;18.50;99.90
63931;DHT22;50111;48.114;-2.066;2022-10-13T14:02:24;18.50;99.90
63931;DHT22;50111;48.114;-2.066;2022-10-13T14:04:49;18.50;99.90
63931;DHT22;50111;48.114;-2.066;2022-10-13T14:07:15;18.50;99.90
63931;DHT22;50111;48.114;-2.066;2022-10-13T14:09:41;18.60;99.90
63931;DHT22;50111;48.114;-2.066;2022-10-13T14:12:06;18.60;99.90
63931;DHT22;50111;48.114;-2.066;2022-10-13T14:14:32;18.60;99.90
63931;DHT22;50111;48.114;-2.066;2022-10-13T14:16:58;18.60;99.90
63931;DHT22;50111;48.114;-2.066;2022-10-13T14:19:23;18.60;99.90
63931;DHT22;50111;48.114;-2.066;2022-10-13T14:21:49;18.50;99.90
63931;DHT22;50111;48.114;-2.066;2022-10-13T14:24:14;18.40;99.90
63931;DHT22;50111;48.114;-2.066;2022-10-13T14:26:40;18.30;99.90
63931;DHT22;50111;48.114;-2.066;2022-10-13T14:29:06;18.30;99.90
63931;DHT22;50111;48.114;-2.066;2022-10-13T14:31:31;18.20;99.90
63931;DHT22;50111;48.114;-2.066;2022-10-13T14:33:57;18.20;99.90
63931;DHT22;50111;48.114;-2.066;2022-10-13T14:36:22;18.20;99.90
63931;DHT22;50111;48.114;-2.066;2022-10-13T14:38:48;18.20;99.90
63931;DHT22;50111;48.114;-2.066;2022-10-13T14:41:15;18.10;99.90
63931;DHT22;50111;48.114;-2.066;2022-10-13T14:43:41;18.10;99.90
63931;DHT22;50111;48.114;-2.066;2022-10-13T14:46:07;18.10;99.90
63931;DHT22;50111;48.114;-2.066;2022-10-13T14:48:33;18.10;99.90
63931;DHT22;50111;48.114;-2.066;2022-10-13T14:51:06;18.10;99.90
63931;DHT22;50111;48.114;-2.066;2022-10-13T14:53:32;18.00;99.90
63931;DHT22;50111;48.114;-2.066;2022-10-13T14:55:58;18.00;99.90
63931;DHT22;50111;48.114;-2.066;2022-10-13T14:58:23;18.00;99.90
63931;DHT22;50111;48.114;-2.066;2022-10-13T15:00:49;18.00;99.90
63931;DHT22;50111;48.114;-2.066;2022-10-13T15:03:14;18.10;99.90
63931;DHT22;50111;48.114;-2.066;2022-10-13T15:05:40;18.10;99.90
63931;DHT22;50111;48.114;-2.066;2022-10-13T15:08:05;18.10;99.90
63931;DHT22;50111;48.114;-2.066;2022-10-13T15:10:31;18.10;99.90
63931;DHT22;50111;48.114;-2.066;2022-10-13T15:12:56;18.10;99.90
63931;DHT22;50111;48.114;-2.066;2022-10-13T15:15:22;18.10;99.90
63931;DHT22;50111;48.114;-2.066;2022-10-13T15:17:47;18.00;99.90
63931;DHT22;50111;48.114;-2.066;2022-10-13T15:20:13;18.00;99.90
63931;DHT22;50111;48.114;-2.066;2022-10-13T15:22:38;18.00;99.90
63931;DHT22;50111;48.114;-2.066;2022-10-13T15:25:04;18.00;99.90
63931;DHT22;50111;48.114;-2.066;2022-10-13T15:27:34;18.00;99.90
63931;DHT22;50111;48.114;-2.066;2022-10-13T15:29:59;18.00;99.90
63931;DHT22;50111;48.114;-2.066;2022-10-13T15:32:25;18.00;99.90
63931;DHT22;50111;48.114;-2.066;2022-10-13T15:34:51;18.00;99.90
63931;DHT22;50111;48.114;-2.066;2022-10-13T15:37:16;18.00;99.90
63931;DHT22;50111;48.114;-2.066;2022-10-13T15:39:42;18.00;99.90
63931;DHT22;50111;48.114;-2.066;2022-10-13T15:42:07;18.00;99.90
63931;DHT22;50111;48.114;-2.066;2022-10-13T15:44:34;18.00;99.90
63931;DHT22;50111;48.114;-2.066;2022-10-13T15:47:00;17.90;99.90
63931;DHT22;50111;48.114;-2.066;2022-10-13T15:49:25;17.90;99.90
63931;DHT22;50111;48.114;-2.066;2022-10-13T15:51:51;17.90;99.90
63931;DHT22;50111;48.114;-2.066;2022-10-13T15:54:17;17.90;99.90
63931;DHT22;50111;48.114;-2.066;2022-10-13T15:56:44;18.00;99.90
63931;DHT22;50111;48.114;-2.066;2022-10-13T15:59:10;18.00;99.90
63931;DHT22;50111;48.114;-2.066;2022-10-13T16:01:35;18.00;99.90
63931;DHT22;50111;48.114;-2.066;2022-10-13T16:04:01;18.00;99.90
63931;DHT22;50111;48.114;-2.066;2022-10-13T16:06:26;18.00;99.90
63931;DHT22;50111;48.114;-2.066;2022-10-13T16:08:52;18.00;99.90
63931;DHT22;50111;48.114;-2.066;2022-10-13T16:11:18;18.00;99.90
63931;DHT22;50111;48.114;-2.066;2022-10-13T16:13:48;17.90;99.90
63931;DHT22;50111;48.114;-2.066;2022-10-13T16:16:14;17.90;99.90
63931;DHT22;50111;48.114;-2.066;2022-10-13T16:18:39;17.90;99.90
63931;DHT22;50111;48.114;-2.066;2022-10-13T16:21:19;17.90;99.90
63931;DHT22;50111;48.114;-2.066;2022-10-13T16:23:46;17.90;99.90
63931;DHT22;50111;48.114;-2.066;2022-10-13T16:26:11;17.90;99.90
63931;DHT22;50111;48.114;-2.066;2022-10-13T16:28:37;17.80;99.90
63931;DHT22;50111;48.114;-2.066;2022-10-13T16:31:03;17.80;99.90
63931;DHT22;50111;48.114;-2.066;2022-10-13T16:33:29;17.80;99.90
63931;DHT22;50111;48.114;-2.066;2022-10-13T16:36:08;17.70;99.90
63931;DHT22;50111;48.114;-2.066;2022-10-13T16:38:34;17.80;99.90
63931;DHT22;50111;48.114;-2.066;2022-10-13T16:41:07;17.80;99.90
63931;DHT22;50111;48.114;-2.066;2022-10-13T16:43:32;17.70;99.90
63931;DHT22;50111;48.114;-2.066;2022-10-13T16:45:59;17.70;99.90